Terminal Aerodrome Forecast
Issued by NWS

Home | Current Version | Previous Version | Text Only | Print | Product List | Glossary Off
Versions: 1 2 3 4 5 6 7 8 9 10 11 12 13 14 15 16 17 18 19 20

535
FTUS43 KGRB 261142
TAFMTW
TAF
KMTW 261142Z 2612/2712 26013G20KT P6SM SCT050
     FM261500 26019G29KT P6SM BKN050
     FM270100 26014G21KT P6SM SCT050 BKN100=

USA.gov is the U.S. government's official web portal to all federal, state and local government web resources and services.